Weather reports worldwide

Advertisment
Chamonix, France (7469): temperature & dewpoint: 16.01.2020 00:00:00 - 22.01.2020 00:00:00 (CET)Chamonix, France (7469): wind speed & gusts: 16.01.2020 00:00:00 - 22.01.2020 00:00:00 (CET)Chamonix, France (7469): wind direction: 16.01.2020 00:00:00 - 22.01.2020 00:00:00 (CET)Chamonix, France (7469): precipitation: 16.01.2020 00:00:00 - 22.01.2020 00:00:00 (CET)
Date & Time tt [°C] td [°C] ff [km/h] ff [kn] fx [km/h] fx [kn] dd rr [mm]
22.01.2020 00:00:00 - - - - - - - -
21.01.2020 23:00:00 0,6 -4,2 4 2 16 9 S 0,0
21.01.2020 22:00:00 1,4 -4,5 5 3 16 9 SSW 0,0
21.01.2020 21:00:00 0,3 -4,3 4 2 22 12 S 0,0
21.01.2020 20:00:00 -0,6 -4,0 5 3 18 10 SSE 0,0
21.01.2020 19:00:00 -1,5 -4,0 4 2 13 7 SSE -
21.01.2020 18:00:00 -1,4 -4,1 4 2 11 6 SW 0,0
21.01.2020 17:00:00 0,5 -3,6 2 1 8 4 NE 0,0
21.01.2020 16:00:00 3,4 -3,9 4 2 16 9 SSW 0,0
21.01.2020 15:00:00 4,6 -4,9 4 2 15 8 SW 0,0
21.01.2020 14:00:00 1,6 -5,6 4 2 9 5 SSW 0,0
21.01.2020 13:00:00 0,2 -6,0 2 1 8 4 S -
21.01.2020 12:00:00 -1,9 -6,5 4 2 11 6 SE 0,0
21.01.2020 11:00:00 -2,9 -7,4 4 2 11 6 N 0,0
21.01.2020 10:00:00 -2,8 -7,5 4 2 13 7 W 0,0
21.01.2020 09:00:00 -1,9 -8,4 8 4 15 8 S 0,0
21.01.2020 08:00:00 -1,4 -9,8 4 2 13 7 SSE 0,0
21.01.2020 07:00:00 0,6 -9,7 4 2 29 16 E -
21.01.2020 06:00:00 1,1 -11,7 5 3 29 16 SSE 0,0
21.01.2020 05:00:00 1,6 -13,7 8 4 54 29 NNE 0,0
21.01.2020 04:00:00 1,8 -13,6 13 7 48 26 NNE 0,0
21.01.2020 03:00:00 1,6 -13,7 11 6 50 27 NNE 0,0
21.01.2020 02:00:00 1,3 -13,2 13 7 55 30 NNE 0,0
21.01.2020 01:00:00 1,3 -12,9 15 8 54 29 NE -
21.01.2020 00:00:00 1,3 -12,5 15 8 54 29 N 0,0
20.01.2020 23:00:00 1,1 -12,0 13 7 48 26 NNE 0,0
20.01.2020 22:00:00 1,1 -11,7 13 7 54 29 NNE 0,0
20.01.2020 21:00:00 0,9 -11,8 11 6 41 22 NNE 0,0
20.01.2020 20:00:00 0,8 -11,6 9 5 37 20 NNE 0,0
20.01.2020 19:00:00 -3,2 -7,4 4 2 15 8 SSE -
20.01.2020 18:00:00 -2,3 -6,8 5 3 18 10 S 0,0
20.01.2020 17:00:00 0,8 -11,9 2 1 34 18 N 0,0
20.01.2020 16:00:00 3,2 -10,1 8 4 42 23 ENE 0,0
20.01.2020 15:00:00 3,5 -12,9 13 7 57 31 NNE 0,0
20.01.2020 14:00:00 3,2 -11,6 11 6 42 23 NE 0,0
20.01.2020 13:00:00 2,6 -12,9 11 6 46 25 NE -
20.01.2020 12:00:00 -0,3 -13,3 9 5 42 23 NE 0,0
20.01.2020 11:00:00 -2,6 -12,4 8 4 26 14 NE 0,0
20.01.2020 10:00:00 -5,5 -10,3 4 2 13 7 S 0,0
20.01.2020 09:00:00 -5,9 -10,3 2 1 11 6 SE 0,0
20.01.2020 08:00:00 -5,6 -10,8 4 2 16 9 S 0,0
20.01.2020 07:00:00 -4,5 -11,7 4 2 16 9 SE -
20.01.2020 06:00:00 -5,4 -10,2 4 2 15 8 ESE 0,0
20.01.2020 05:00:00 -5,7 -10,7 4 2 13 7 S 0,0
20.01.2020 04:00:00 -5,2 -9,6 4 2 22 12 SSE 0,0
20.01.2020 03:00:00 -5,2 -9,3 4 2 28 15 S 0,0
20.01.2020 02:00:00 -2,9 -11,9 8 4 34 18 N 0,0
20.01.2020 01:00:00 -2,8 -11,1 9 5 37 20 W -
20.01.2020 00:00:00 -3,0 -9,9 9 5 35 19 ENE 0,0
19.01.2020 23:00:00 -3,1 -9,0 8 4 37 20 ESE 0,0
19.01.2020 22:00:00 -3,1 -8,0 8 4 26 14 E 0,0
19.01.2020 21:00:00 -5,3 -7,3 4 2 13 7 SSE 0,0
19.01.2020 20:00:00 -5,3 -7,4 5 3 21 11 SSW 0,0
19.01.2020 19:00:00 -4,9 -6,9 5 3 21 11 WSW -
19.01.2020 18:00:00 -4,6 -6,3 4 2 11 6 SSW 0,0
19.01.2020 17:00:00 -2,2 -5,7 2 1 13 7 SSW 0,0
19.01.2020 16:00:00 -1,3 -5,7 5 3 16 9 SSW 0,0
19.01.2020 15:00:00 -0,7 -4,8 5 3 16 9 S 0,0
19.01.2020 14:00:00 -2,0 -4,3 4 2 16 9 SSW 0,0
19.01.2020 13:00:00 -2,3 -4,3 4 2 13 7 S -
19.01.2020 12:00:00 -5,0 -6,0 4 2 8 4 SSE 0,0
19.01.2020 11:00:00 -6,2 -7,1 2 1 8 4 SE 0,0
19.01.2020 10:00:00 -6,8 -7,7 2 1 8 4 NE 0,0
19.01.2020 09:00:00 -7,8 -8,9 2 1 9 5 NE 0,0
19.01.2020 08:00:00 -7,8 -8,9 4 2 8 4 N 0,0
19.01.2020 07:00:00 -7,5 -8,6 0 0 5 3 N -
19.01.2020 06:00:00 -7,4 -8,5 2 1 8 4 E 0,0
19.01.2020 05:00:00 -7,5 -8,6 2 1 9 5 NE 0,0
19.01.2020 04:00:00 -7,5 -8,6 0 0 4 2 N 0,0
19.01.2020 03:00:00 -7,2 -8,3 0 0 5 3 N 0,0
19.01.2020 02:00:00 -7,1 -8,0 0 0 5 3 N 0,0
19.01.2020 01:00:00 -7,1 -8,0 2 1 8 4 N -
19.01.2020 00:00:00 -7,4 -8,5 2 1 8 4 NW 0,0
18.01.2020 23:00:00 -6,8 -7,7 2 1 5 3 E 0,0
18.01.2020 22:00:00 -6,2 -7,1 0 0 4 2 N 0,0
18.01.2020 21:00:00 -5,1 -5,9 2 1 8 4 NE 0,0
18.01.2020 20:00:00 -4,4 -5,2 0 0 8 4 N 0,0
18.01.2020 19:00:00 -3,4 -4,1 4 2 9 5 N -
18.01.2020 18:00:00 -2,7 -3,5 0 0 5 3 N 0,0
18.01.2020 17:00:00 -1,3 -2,4 2 1 8 4 E 0,0
18.01.2020 16:00:00 1,9 -1,9 0 0 8 4 N 0,0
18.01.2020 15:00:00 4,1 -3,7 4 2 9 5 S 0,0
18.01.2020 14:00:00 3,7 -2,1 2 1 9 5 SSE 0,0
18.01.2020 13:00:00 4,7 -0,9 2 1 8 4 SE -
18.01.2020 12:00:00 1,5 -0,6 0 0 8 4 N 0,0
18.01.2020 11:00:00 -0,1 -0,7 0 0 4 2 N 0,0
18.01.2020 10:00:00 -0,7 -1,3 0 0 4 2 N 0,0
18.01.2020 09:00:00 -0,3 -0,7 0 0 5 3 N 0,0
18.01.2020 08:00:00 -0,3 -0,7 0 0 5 3 N 0,0
18.01.2020 07:00:00 -0,2 -0,6 4 2 15 8 ESE -
18.01.2020 06:00:00 0,0 -0,4 2 1 13 7 SE 0,2
18.01.2020 05:00:00 0,1 -0,3 0 0 9 5 N 0,2
18.01.2020 04:00:00 0,1 -0,3 0 0 9 5 N 0,0
18.01.2020 03:00:00 0,1 -0,3 2 1 9 5 SE 0,4
18.01.2020 02:00:00 0,2 -0,2 2 1 11 6 SSE 0,0
18.01.2020 01:00:00 0,2 -0,2 4 2 16 9 SW -
18.01.2020 00:00:00 0,2 -0,2 4 2 18 10 SSW 0,4
17.01.2020 23:00:00 0,3 -0,1 4 2 15 8 SSW 0,8
17.01.2020 22:00:00 0,2 -0,2 2 1 8 4 S 2,0
17.01.2020 21:00:00 0,1 -0,3 0 0 2 1 N 1,0
17.01.2020 20:00:00 0,1 -0,3 0 0 4 2 N 1,0
17.01.2020 19:00:00 0,2 -0,4 0 0 4 2 N -
17.01.2020 18:00:00 0,2 -0,5 0 0 5 3 N 3,0
17.01.2020 17:00:00 1,1 0,1 2 1 9 5 SSE 1,0
17.01.2020 16:00:00 3,3 0,2 2 1 22 12 SSW 0,0
17.01.2020 15:00:00 5,2 -1,9 9 5 21 11 SW 0,0
17.01.2020 14:00:00 4,5 -0,7 2 1 13 7 S 0,0
17.01.2020 13:00:00 4,0 -0,4 2 1 8 4 SW -
17.01.2020 12:00:00 1,0 -0,5 2 1 5 3 NE 0,0
17.01.2020 11:00:00 -1,6 -2,3 4 2 9 5 E 0,0
17.01.2020 10:00:00 -3,1 -3,8 4 2 9 5 NNE 0,0
17.01.2020 09:00:00 -4,9 -5,6 4 2 8 4 NNE 0,0
17.01.2020 08:00:00 -6,5 -7,3 0 0 9 5 N 0,0
17.01.2020 07:00:00 -6,9 -7,8 2 1 5 3 ENE -
17.01.2020 06:00:00 -6,8 -7,7 0 0 9 5 N 0,0
17.01.2020 05:00:00 -6,3 -7,1 4 2 9 5 E 0,0
17.01.2020 04:00:00 -6,1 -6,9 4 2 9 5 ENE 0,0
17.01.2020 03:00:00 -6,2 -7,0 0 0 4 2 N 0,0
17.01.2020 02:00:00 -5,9 -6,7 0 0 8 4 N 0,0
17.01.2020 01:00:00 -5,5 -6,3 0 0 8 4 N -
17.01.2020 00:00:00 -5,0 -5,8 2 1 8 4 ENE 0,0
16.01.2020 23:00:00 -4,5 -5,2 2 1 8 4 ENE 0,0
16.01.2020 22:00:00 -4,1 -4,9 2 1 8 4 NE 0,0
16.01.2020 21:00:00 -3,7 -4,5 0 0 4 2 N 0,0
16.01.2020 20:00:00 -3,2 -4,2 0 0 4 2 N 0,0
16.01.2020 19:00:00 -2,5 -3,6 0 0 5 3 N -
16.01.2020 18:00:00 -1,5 -2,9 2 1 5 3 N 0,0
16.01.2020 17:00:00 0,9 -2,3 0 0 5 3 N 0,0
16.01.2020 16:00:00 7,9 -1,6 4 2 8 4 S 0,0
16.01.2020 15:00:00 8,7 -3,5 2 1 8 4 SSW 0,0
16.01.2020 14:00:00 6,0 -0,1 4 2 8 4 E 0,0
16.01.2020 13:00:00 0,8 -1,0 0 0 9 5 N -
16.01.2020 12:00:00 -4,4 -5,2 2 1 5 3 S 0,0
16.01.2020 11:00:00 -4,7 -5,5 4 2 8 4 N 0,0
16.01.2020 10:00:00 -4,9 -5,7 2 1 8 4 NNE 0,0
16.01.2020 09:00:00 -4,9 -5,6 2 1 9 5 ESE 0,0
16.01.2020 08:00:00 -5,5 -6,3 2 1 8 4 S 0,0
16.01.2020 07:00:00 -5,2 -5,9 2 1 8 4 NNE -
16.01.2020 06:00:00 -5,7 -6,5 2 1 8 4 E 0,0
16.01.2020 05:00:00 -5,5 -6,2 4 2 8 4 NNW 0,0
16.01.2020 04:00:00 -5,5 -6,2 0 0 8 4 N 0,0
16.01.2020 03:00:00 -5,0 -5,7 0 0 5 3 N 0,0
16.01.2020 02:00:00 -4,5 -5,2 0 0 8 4 N 0,0
16.01.2020 01:00:00 -3,9 -4,4 0 0 9 5 N -
16.01.2020 00:00:00 -4,2 -4,9 2 1 8 4 NE 0,0

tt = temperature
td = dewpoint
ff = wind speed
fx = gusts
dd = wind direction
rr = precipitation

Next stations